createdAt,value
2023-04-09T00:07:33.483Z,101055.74
2023-04-09T00:22:36.522Z,101053.80
2023-04-09T00:37:39.217Z,101049.84
2023-04-09T00:52:43.043Z,101049.09
2023-04-09T01:08:01.646Z,101054.14
2023-04-09T01:23:07.198Z,101054.55
2023-04-09T01:38:11.198Z,101070.33
2023-04-09T01:53:14.360Z,101084.33
2023-04-09T02:08:21.226Z,101093.65
2023-04-09T02:23:24.670Z,101091.05
2023-04-09T02:38:27.351Z,101092.55
2023-04-09T02:53:29.975Z,101096.28
2023-04-09T03:08:32.508Z,101092.70
2023-04-09T03:23:35.318Z,101089.83
2023-04-09T03:38:37.948Z,101083.12
2023-04-09T03:53:41.968Z,101078.29
2023-04-09T04:08:45.004Z,101082.25
2023-04-09T04:23:47.613Z,101095.42
2023-04-09T04:38:50.697Z,101105.59
2023-04-09T04:53:53.561Z,101111.59
2023-04-09T05:08:59.175Z,101111.55
2023-04-09T05:24:02.375Z,101116.63
2023-04-09T05:39:05.223Z,101122.24
2023-04-09T05:54:08.047Z,101126.34
2023-04-09T06:09:10.847Z,101137.70
2023-04-09T06:24:13.667Z,101133.48
2023-04-09T06:39:16.805Z,101124.70
2023-04-09T06:54:20.812Z,101130.67
2023-04-09T07:09:23.415Z,101144.98
2023-04-09T07:24:26.041Z,101155.78
2023-04-09T07:39:28.595Z,101162.55
2023-04-09T07:54:31.861Z,101152.80
2023-04-09T08:09:34.759Z,101171.63
2023-04-09T08:24:38.781Z,101164.80
2023-04-09T08:39:41.354Z,101169.70
2023-04-09T08:54:44.249Z,101173.79
2023-04-09T09:09:54.502Z,101179.73
2023-04-09T09:24:57.647Z,101174.80
2023-04-09T09:40:01.432Z,101184.85
2023-04-09T09:55:06.594Z,101182.19
2023-04-09T10:10:09.763Z,101185.60
2023-04-09T10:25:12.766Z,101165.23
2023-04-09T10:40:21.796Z,101172.83
2023-04-09T10:55:39.122Z,101168.59
2023-04-09T11:10:44.691Z,101165.48
2023-04-09T11:25:51.344Z,101168.14
2023-04-09T11:40:57.713Z,101154.33
2023-04-09T11:56:00.762Z,101150.80
2023-04-09T12:11:16.314Z,101158.79
2023-04-09T12:26:19.075Z,101157.16
2023-04-09T12:41:22.021Z,101173.50
2023-04-09T12:56:24.847Z,101163.98
2023-04-09T13:11:27.600Z,101163.64
2023-04-09T13:26:31.132Z,101168.95
2023-04-09T13:41:34.148Z,101159.83
2023-04-09T13:56:38.053Z,101154.41
2023-04-09T14:11:40.668Z,101159.98
2023-04-09T14:26:43.215Z,101159.50
2023-04-09T14:41:45.962Z,101156.58
2023-04-09T14:56:48.535Z,101149.63
2023-04-09T15:11:52.740Z,101147.38
2023-04-09T15:26:56.994Z,101141.55
2023-04-09T15:41:59.792Z,101136.04
2023-04-09T15:57:02.299Z,101133.49
2023-04-09T16:12:05.210Z,101129.16
2023-04-09T16:27:07.830Z,101129.13
2023-04-09T16:42:12.165Z,101130.27
2023-04-09T16:57:15.553Z,101122.88
2023-04-09T17:12:18.459Z,101133.42
2023-04-09T17:27:21.110Z,101141.91
2023-04-09T17:42:24.599Z,101148.66
2023-04-09T17:57:27.274Z,101155.65
2023-04-09T18:12:29.860Z,101159.28
2023-04-09T18:27:32.630Z,101164.33
2023-04-09T18:42:35.384Z,101173.67
2023-04-09T18:57:38.121Z,101181.47
2023-04-09T19:12:47.532Z,101202.33
2023-04-09T19:27:50.363Z,101206.11
2023-04-09T19:42:53.019Z,101210.95
2023-04-09T19:57:56.639Z,101215.74
2023-04-09T20:12:59.398Z,101219.64
2023-04-09T20:28:04.875Z,101227.88
2023-04-09T20:43:07.542Z,101222.05
2023-04-09T20:58:10.177Z,101226.33
2023-04-09T21:13:12.870Z,101216.42
2023-04-09T21:28:15.661Z,101220.16
2023-04-09T21:43:18.422Z,101224.88
2023-04-09T21:58:21.077Z,101219.91
2023-04-09T22:13:23.709Z,101223.13
2023-04-09T22:28:27.416Z,101225.54
2023-04-09T22:43:30.170Z,101221.86
2023-04-09T22:58:32.813Z,101209.96
2023-04-09T23:13:35.297Z,101210.45
2023-04-09T23:28:37.937Z,101211.86
2023-04-09T23:43:41.243Z,101208.52
2023-04-09T23:58:43.870Z,101209.59
